Time;durP1;ratioP1;P1;durP2;ratioP2;P2;SDS_P1;SDS_P2;PMS_P1;PMS_P2;Temp;Humidity;BMP_temperature;BMP_pressure;BME280_temperature;BME280_humidity;BME280_pressure;Samples;Min_cycle;Max_cycle;Signal;HPM_P1;HPM_P2
2023/12/20 00:00:22;;;;;;;22.67;13.25;;;;;;;0.95;100.00;62096.38;5100397;28;20219;-78
2023/12/20 00:02:49;;;;;;;8.60;5.97;;;;;;;0.93;100.00;62101.31;5108088;28;20259;-78
2023/12/20 00:05:16;;;;;;;9.70;6.85;;;;;;;0.95;100.00;62098.34;5103785;28;20552;-79
2023/12/20 00:07:43;;;;;;;9.40;6.95;;;;;;;0.95;100.00;62095.84;5105310;28;20413;-78
2023/12/20 00:10:12;;;;;;;3.83;3.50;;;;;;;0.95;100.00;62096.38;5102727;28;20250;-79
2023/12/20 00:12:40;;;;;;;5.00;3.70;;;;;;;0.97;100.00;62098.41;5107275;28;20220;-78
2023/12/20 00:15:08;;;;;;;5.53;3.90;;;;;;;0.99;100.00;62094.94;5106579;28;20220;-79
2023/12/20 00:17:36;;;;;;;5.45;4.82;;;;;;;0.99;100.00;62099.94;5107914;28;20204;-79
2023/12/20 00:20:03;;;;;;;4.38;3.10;;;;;;;0.96;100.00;62099.38;5097181;28;20216;-79
2023/12/20 00:22:30;;;;;;;4.05;3.05;;;;;;;0.86;100.00;62084.13;5089912;28;20263;-79
2023/12/20 00:24:57;;;;;;;6.68;4.15;;;;;;;0.91;100.00;62091.75;5106798;28;20216;-79
2023/12/20 00:27:24;;;;;;;2.47;2.33;;;;;;;0.98;100.00;62098.94;5090151;28;20271;-78
2023/12/20 00:29:51;;;;;;;5.20;2.50;;;;;;;0.91;100.00;62089.75;5086147;28;20279;-78
2023/12/20 00:32:18;;;;;;;2.00;1.90;;;;;;;0.86;100.00;62089.63;5088503;28;20236;-78
2023/12/20 00:34:46;;;;;;;4.18;3.80;;;;;;;0.83;100.00;62089.06;5086967;28;20517;-78
2023/12/20 00:37:13;;;;;;;8.38;6.22;;;;;;;0.81;100.00;62082.00;5091124;28;20254;-80
2023/12/20 00:39:40;;;;;;;12.60;7.30;;;;;;;0.84;100.00;62087.06;5092664;28;20222;-78
2023/12/20 00:42:07;;;;;;;10.50;7.32;;;;;;;0.83;100.00;62089.06;5108713;28;20204;-79
2023/12/20 00:44:34;;;;;;;10.68;7.18;;;;;;;0.77;100.00;62079.91;5100104;28;20312;-79
2023/12/20 00:47:01;;;;;;;9.55;5.45;;;;;;;0.79;100.00;62079.44;5091150;28;20512;-80
2023/12/20 00:49:28;;;;;;;5.65;4.57;;;;;;;0.81;100.00;62081.50;5086866;28;20221;-80
2023/12/20 00:51:56;;;;;;;4.22;3.67;;;;;;;0.76;100.00;62073.88;5087305;28;20232;-79
2023/12/20 00:54:23;;;;;;;9.93;5.57;;;;;;;0.70;100.00;62065.72;5088231;28;20283;-78
2023/12/20 00:56:50;;;;;;;12.02;5.47;;;;;;;0.69;100.00;62072.19;5087793;28;20570;-79
2023/12/20 00:59:17;;;;;;;13.15;6.72;;;;;;;0.64;100.00;62069.09;5089823;28;20283;-79
2023/12/20 01:01:44;;;;;;;10.63;6.90;;;;;;;0.61;100.00;62063.47;5089658;28;20192;-79
2023/12/20 01:04:11;;;;;;;12.07;8.23;;;;;;;0.42;100.00;62042.03;5096824;28;20227;-79
2023/12/20 01:06:38;;;;;;;10.50;6.30;;;;;;;0.64;100.00;62069.56;5106922;28;20241;-79
2023/12/20 01:09:07;;;;;;;11.88;5.43;;;;;;;0.65;100.00;62070.63;5106380;28;20212;-79
2023/12/20 01:11:34;;;;;;;5.82;4.90;;;;;;;0.58;100.00;62058.44;5093744;28;20200;-78
2023/12/20 01:14:01;;;;;;;5.50;4.60;;;;;;;0.66;100.00;62068.59;5090027;28;20229;-79
2023/12/20 01:16:28;;;;;;;7.90;3.88;;;;;;;0.67;100.00;62067.13;5089506;28;20227;-79
2023/12/20 01:18:55;;;;;;;10.00;6.20;;;;;;;0.63;100.00;62061.03;5095940;28;20539;-78
2023/12/20 01:21:22;;;;;;;7.32;5.93;;;;;;;0.68;100.00;62065.66;5091567;28;20269;-78
2023/12/20 01:23:49;;;;;;;11.30;5.75;;;;;;;0.59;100.00;62059.44;5108792;28;20196;-79
2023/12/20 01:26:17;;;;;;;15.27;8.70;;;;;;;0.58;100.00;62055.91;5089803;28;20201;-79
2023/12/20 01:28:44;;;;;;;10.18;6.95;;;;;;;0.58;100.00;62060.41;5089056;28;20211;-79
2023/12/20 01:31:11;;;;;;;17.50;8.07;;;;;;;0.64;100.00;62064.56;5089347;28;20201;-78
2023/12/20 01:33:38;;;;;;;16.52;9.48;;;;;;;0.66;100.00;62066.63;5089880;28;20369;-79
2023/12/20 01:36:06;;;;;;;28.65;17.20;;;;;;;0.68;100.00;62068.16;5091954;28;20298;-79
2023/12/20 01:38:33;;;;;;;20.90;12.65;;;;;;;0.60;100.00;62057.47;5107939;28;20207;-78
2023/12/20 01:41:00;;;;;;;37.95;21.05;;;;;;;0.55;100.00;62055.34;5095354;28;20204;-79
2023/12/20 01:43:28;;;;;;;31.05;18.50;;;;;;;0.55;100.00;62052.34;5090851;28;20268;-79
2023/12/20 01:45:56;;;;;;;21.42;14.25;;;;;;;0.53;100.00;62052.78;5093870;28;20300;-79
2023/12/20 01:48:23;;;;;;;24.17;14.30;;;;;;;0.52;100.00;62052.25;5108773;28;20192;-80
2023/12/20 01:50:50;;;;;;;20.10;11.95;;;;;;;0.51;100.00;62048.22;5107334;28;20295;-78
2023/12/20 01:53:17;;;;;;;19.05;12.07;;;;;;;0.47;100.00;62044.13;5091938;28;20238;-81
2023/12/20 01:55:44;;;;;;;22.75;14.05;;;;;;;0.45;100.00;62047.59;5108211;28;20247;-79
2023/12/20 01:58:11;;;;;;;24.67;14.02;;;;;;;0.44;100.00;62046.06;5109828;28;20196;-80
2023/12/20 02:00:39;;;;;;;28.60;17.35;;;;;;;0.41;100.00;62041.00;5112292;28;20412;-78
2023/12/20 02:03:06;;;;;;;26.88;14.23;;;;;;;0.40;100.00;62036.97;5119672;28;20403;-80
2023/12/20 02:05:35;;;;;;;23.65;14.30;;;;;;;0.38;100.00;62035.41;5106528;28;20446;-79
2023/12/20 02:08:02;;;;;;;25.23;15.20;;;;;;;0.40;100.00;62041.97;5106307;28;20204;-81
2023/12/20 02:10:29;;;;;;;29.65;18.20;;;;;;;0.37;100.00;62034.38;5099772;28;20216;-79
2023/12/20 02:12:55;;;;;;;35.83;21.88;;;;;;;0.38;100.00;62040.41;5098596;28;20206;-81
2023/12/20 02:15:22;;;;;;;27.15;17.88;;;;;;;0.42;100.00;62042.03;5109337;28;20288;-78
2023/12/20 02:17:51;;;;;;;25.38;16.90;;;;;;;0.37;100.00;62036.91;5105922;28;20424;-79
2023/12/20 02:20:18;;;;;;;35.95;20.48;;;;;;;0.39;100.00;62038.94;5107560;28;20216;-80
2023/12/20 02:22:47;;;;;;;34.53;22.42;;;;;;;0.34;100.00;62033.31;5105742;28;20203;-80
2023/12/20 02:25:14;;;;;;;40.20;23.40;;;;;;;0.33;100.00;62032.78;5089991;28;20231;-80
2023/12/20 02:27:41;;;;;;;43.38;24.13;;;;;;;0.34;100.00;62031.31;5098540;28;20215;-79
2023/12/20 02:30:09;;;;;;;38.15;20.77;;;;;;;0.37;100.00;62031.38;5106255;28;20224;-79
2023/12/20 02:32:36;;;;;;;40.45;21.50;;;;;;;0.42;100.00;62039.00;5108788;28;20196;-79
2023/12/20 02:35:03;;;;;;;38.10;21.75;;;;;;;0.45;100.00;62047.59;5107378;28;20218;-82
2023/12/20 02:37:29;;;;;;;38.55;21.50;;;;;;;0.50;100.00;62049.72;5095994;28;20232;-79
2023/12/20 02:39:58;;;;;;;32.10;19.30;;;;;;;0.52;100.00;62044.25;5100652;28;20279;-81
2023/12/20 02:42:25;;;;;;;28.58;15.52;;;;;;;0.52;100.00;62054.28;5105006;28;20201;-79
2023/12/20 02:44:52;;;;;;;19.45;12.20;;;;;;;0.47;100.00;62049.13;5105678;28;20224;-79
2023/12/20 02:47:17;;;;;;;8.30;6.63;;;;;;;0.56;100.00;62053.34;5098067;28;20235;-81
2023/12/20 02:49:44;;;;;;;9.45;6.10;;;;;;;0.42;100.00;62041.50;5106439;28;20251;-79
2023/12/20 02:52:11;;;;;;;5.32;4.80;;;;;;;0.37;100.00;62033.88;5107029;28;20211;-79
2023/12/20 02:54:38;;;;;;;7.03;4.57;;;;;;;0.39;100.00;62043.97;5111112;28;20216;-81
2023/12/20 02:57:07;;;;;;;7.88;4.70;;;;;;;0.38;100.00;62034.91;5099843;28;20243;-79
2023/12/20 02:59:34;;;;;;;10.60;7.22;;;;;;;0.34;100.00;62033.31;5111891;28;20271;-79
2023/12/20 03:02:01;;;;;;;7.70;5.88;;;;;;;0.31;100.00;62035.75;5108891;28;20374;-78
2023/12/20 03:04:28;;;;;;;19.83;9.70;;;;;;;0.23;100.00;62025.03;5110819;28;20212;-80
2023/12/20 03:06:55;;;;;;;20.42;10.75;;;;;;;0.13;100.00;62011.78;5103337;28;20559;-80
2023/12/20 03:09:21;;;;;;;19.52;10.90;;;;;;;0.12;100.00;62008.25;5092683;28;20223;-78
2023/12/20 03:11:48;;;;;;;33.97;21.30;;;;;;;0.09;100.00;62007.69;5103792;28;20226;-80
2023/12/20 03:14:17;;;;;;;43.38;22.80;;;;;;;0.16;100.00;62017.34;5100354;28;20255;-81
2023/12/20 03:16:48;;;;;;;53.35;28.90;;;;;;;0.22;100.00;62021.00;5108018;28;20227;-79
2023/12/20 03:19:15;;;;;;;67.80;38.17;;;;;;;0.23;100.00;62020.03;5110492;28;20282;-79
2023/12/20 03:21:42;;;;;;;43.08;23.08;;;;;;;0.23;100.00;62022.53;5097983;28;20252;-78
2023/12/20 03:24:10;;;;;;;43.85;25.90;;;;;;;0.19;100.00;62017.94;5105921;28;20536;-81
2023/12/20 03:26:37;;;;;;;40.40;23.30;;;;;;;0.18;100.00;62019.91;5103658;28;20208;-80
2023/12/20 03:29:04;;;;;;;64.22;33.60;;;;;;;0.20;100.00;62018.94;5091911;28;20240;-80
2023/12/20 03:31:32;;;;;;;57.47;34.03;;;;;;;0.15;100.00;62009.34;5093593;28;20264;-79
2023/12/20 03:33:59;;;;;;;43.75;28.02;;;;;;;0.18;100.00;62019.91;5090568;28;20239;-79
2023/12/20 03:36:26;;;;;;;26.02;15.75;;;;;;;0.13;100.00;62011.78;5093467;28;20282;-80
2023/12/20 03:38:54;;;;;;;31.70;19.75;;;;;;;0.07;100.00;62006.13;5092469;28;20204;-79
2023/12/20 03:41:20;;;;;;;30.33;19.10;;;;;;;0.05;100.00;62004.09;5099271;28;20512;-78
2023/12/20 03:43:47;;;;;;;45.63;24.40;;;;;;;0.01;100.00;62000.00;5110701;28;20207;-80
2023/12/20 03:46:15;;;;;;;37.40;22.42;;;;;;;-0.02;100.00;61999.44;5111223;28;20200;-80
2023/12/20 03:48:43;;;;;;;43.20;23.70;;;;;;;-0.11;100.00;61985.19;5110551;28;20199;-80
2023/12/20 03:51:10;;;;;;;41.00;25.08;;;;;;;-0.15;100.00;61983.59;5093182;28;20228;-80
2023/12/20 03:53:37;;;;;;;32.97;20.55;;;;;;;-0.19;100.00;61980.00;5090943;28;20264;-79
2023/12/20 03:56:04;;;;;;;40.13;25.83;;;;;;;-0.22;100.00;61976.94;5093121;28;20199;-81
2023/12/20 03:58:31;;;;;;;49.72;28.75;;;;;;;-0.24;100.00;61974.88;5092748;28;20261;-81
2023/12/20 04:00:58;;;;;;;40.95;23.42;;;;;;;-0.39;100.00;61961.50;5105466;28;20201;-80
2023/12/20 04:03:25;;;;;;;31.80;21.90;;;;;;;-0.27;100.00;61968.81;5090690;28;20505;-79
2023/12/20 04:05:54;;;;;;;29.98;17.65;;;;;;;-0.30;100.00;61971.25;5089241;28;20280;-80
2023/12/20 04:08:21;;;;;;;27.90;17.65;;;;;;;-0.31;100.00;61964.72;5099370;28;20200;-79
2023/12/20 04:10:48;;;;;;;22.23;14.55;;;;;;;-0.35;100.00;61963.13;5099907;28;20216;-79
2023/12/20 04:13:15;;;;;;;22.45;12.77;;;;;;;-0.38;100.00;61957.53;5109570;28;20222;-79
2023/12/20 04:15:42;;;;;;;18.08;11.07;;;;;;;-0.39;100.00;61959.53;5110883;28;20211;-80
2023/12/20 04:18:10;;;;;;;7.97;7.05;;;;;;;-0.35;100.00;61963.13;5096581;28;20228;-78
2023/12/20 04:20:37;;;;;;;8.63;5.97;;;;;;;-0.37;100.00;61958.56;5090720;28;20220;-80
2023/12/20 04:23:05;;;;;;;6.93;5.32;;;;;;;-0.40;100.00;61955.50;5100020;28;20200;-79
2023/12/20 04:25:33;;;;;;;6.95;4.43;;;;;;;-0.34;100.00;61969.66;5088765;28;20228;-78
2023/12/20 04:27:59;;;;;;;4.30;3.90;;;;;;;-0.31;100.00;61967.22;5108293;28;20237;-80
2023/12/20 04:30:27;;;;;;;4.85;4.10;;;;;;;-0.34;100.00;61969.13;5110767;28;20223;-79
2023/12/20 04:32:54;;;;;;;6.07;4.95;;;;;;;-0.32;100.00;61963.69;5091963;28;20208;-79
2023/12/20 04:35:21;;;;;;;5.00;4.60;;;;;;;-0.34;100.00;61964.13;5090623;28;20221;-81
2023/12/20 04:37:49;;;;;;;7.25;4.70;;;;;;;-0.38;100.00;61957.53;5099624;28;20232;-79
2023/12/20 04:40:18;;;;;;;4.97;3.47;;;;;;;-0.40;100.00;61958.50;5092033;28;20232;-81
2023/12/20 04:42:44;;;;;;;4.70;4.25;;;;;;;-0.39;100.00;61956.50;5098623;28;20207;-78
2023/12/20 04:45:13;;;;;;;8.05;5.93;;;;;;;-0.33;100.00;61967.66;5093557;28;20220;-79
2023/12/20 04:47:40;;;;;;;5.07;4.30;;;;;;;-0.32;100.00;61966.19;5106634;28;20201;-80
2023/12/20 04:50:09;;;;;;;5.03;4.57;;;;;;;-0.26;100.00;61972.34;5095264;28;20220;-80
2023/12/20 04:52:36;;;;;;;7.35;4.68;;;;;;;-0.39;100.00;61959.53;5096673;28;20196;-79
2023/12/20 04:55:03;;;;;;;10.82;8.13;;;;;;;-0.31;100.00;61964.72;5102894;28;20223;-79
2023/12/20 04:57:31;;;;;;;6.90;4.32;;;;;;;-0.35;100.00;61963.63;5100693;28;20295;-80
2023/12/20 04:59:57;;;;;;;7.55;4.82;;;;;;;-0.44;100.00;61951.91;5089976;28;20295;-80
2023/12/20 05:02:24;;;;;;;5.35;4.85;;;;;;;-0.46;100.00;61949.34;5108882;28;20212;-78
2023/12/20 05:04:51;;;;;;;5.82;5.22;;;;;;;-0.43;100.00;61952.94;5091524;28;20221;-79
2023/12/20 05:07:18;;;;;;;12.88;8.05;;;;;;;-0.53;100.00;61945.19;5100942;28;20200;-79
2023/12/20 05:09:45;;;;;;;14.60;11.02;;;;;;;-0.35;100.00;61965.63;5107255;28;20234;-79
2023/12/20 05:12:12;;;;;;;14.88;9.80;;;;;;;-0.48;100.00;61947.28;5100209;28;20207;-81
2023/12/20 05:14:40;;;;;;;12.88;9.70;;;;;;;-0.41;100.00;61956.97;5094710;28;20220;-80
2023/12/20 05:17:08;;;;;;;16.00;11.85;;;;;;;-0.43;100.00;61952.44;5108688;28;20238;-79
2023/12/20 05:19:35;;;;;;;15.43;11.73;;;;;;;-0.44;100.00;61956.41;5109129;28;20215;-80
2023/12/20 05:22:02;;;;;;;16.75;11.55;;;;;;;-0.42;100.00;61956.47;5102805;28;20192;-79
2023/12/20 05:24:29;;;;;;;18.08;12.82;;;;;;;-0.41;100.00;61959.97;5092804;28;20216;-80
2023/12/20 05:26:56;;;;;;;20.92;12.48;;;;;;;-0.47;100.00;61951.34;5092285;28;20207;-80
2023/12/20 05:29:23;;;;;;;23.73;10.77;;;;;;;-0.40;100.00;61953.50;5090902;28;20270;-80
2023/12/20 05:31:51;;;;;;;18.35;10.02;;;;;;;-0.45;100.00;61955.38;5089723;28;20497;-80
2023/12/20 05:34:18;;;;;;;15.02;10.00;;;;;;;-0.49;100.00;61949.28;5095562;28;20222;-78
2023/12/20 05:36:45;;;;;;;29.30;16.25;;;;;;;-0.44;100.00;61949.41;5110650;28;20379;-79
2023/12/20 05:39:12;;;;;;;18.27;11.18;;;;;;;-0.41;100.00;61956.97;5107207;28;20262;-80
2023/12/20 05:41:39;;;;;;;21.02;13.40;;;;;;;-0.40;100.00;61958.00;5109609;28;20200;-82
2023/12/20 05:44:06;;;;;;;15.10;10.35;;;;;;;-0.43;100.00;61957.44;5108450;28;20226;-81
2023/12/20 05:46:33;;;;;;;19.73;14.02;;;;;;;-0.54;100.00;61943.66;5109631;28;20196;-79
2023/12/20 05:49:02;;;;;;;30.60;17.67;;;;;;;-0.51;100.00;61947.25;5109947;28;20215;-80
2023/12/20 05:51:29;;;;;;;27.02;16.48;;;;;;;-0.52;100.00;61946.19;5105162;28;20208;-79
2023/12/20 05:53:55;;;;;;;30.70;15.65;;;;;;;-0.53;100.00;61942.16;5098952;28;20280;-78
2023/12/20 05:56:23;;;;;;;29.50;17.15;;;;;;;-0.49;100.00;61949.28;5102318;28;20503;-79
2023/12/20 05:58:50;;;;;;;32.00;16.90;;;;;;;-0.50;100.00;61947.75;5110305;28;20230;-79
2023/12/20 06:01:17;;;;;;;31.90;18.90;;;;;;;-0.52;100.00;61953.72;5094322;28;20200;-79
2023/12/20 06:03:45;;;;;;;33.70;19.17;;;;;;;-0.50;100.00;61948.25;5109239;28;20259;-80
2023/12/20 06:06:14;;;;;;;22.45;15.23;;;;;;;-0.64;100.00;61935.91;5112509;28;20195;-80
2023/12/20 06:08:43;;;;;;;25.65;15.10;;;;;;;-0.81;100.00;61913.50;5108806;28;20237;-79
2023/12/20 06:11:14;;;;;;;25.50;17.02;;;;;;;-0.85;100.00;61911.91;5114914;28;20196;-81
2023/12/20 06:13:41;;;;;;;22.50;14.40;;;;;;;-0.92;100.00;61904.75;5106192;28;20434;-78
2023/12/20 06:16:08;;;;;;;25.52;14.90;;;;;;;-0.94;100.00;61905.19;5093829;28;20196;-80
2023/12/20 06:18:36;;;;;;;23.40;16.08;;;;;;;-1.00;100.00;61894.06;5098383;28;20233;-79
2023/12/20 06:21:04;;;;;;;21.40;13.88;;;;;;;-1.28;100.00;61868.91;5113912;28;20196;-79
2023/12/20 06:23:32;;;;;;;27.83;15.90;;;;;;;-1.41;100.00;61855.09;5113821;28;20252;-79
2023/12/20 06:25:59;;;;;;;26.27;15.88;;;;;;;-1.39;100.00;61857.16;5096037;28;20205;-81
2023/12/20 06:28:26;;;;;;;23.55;15.00;;;;;;;-1.34;100.00;61865.28;5095783;28;20219;-81
2023/12/20 06:30:54;;;;;;;26.83;17.27;;;;;;;-1.30;100.00;61863.88;5113109;28;20220;-80
2023/12/20 06:33:22;;;;;;;24.05;15.57;;;;;;;-1.18;100.00;61881.13;5111125;28;20226;-79
2023/12/20 06:35:49;;;;;;;22.63;13.68;;;;;;;-1.13;100.00;61881.25;5113939;28;20215;-78
2023/12/20 06:38:16;;;;;;;20.05;13.60;;;;;;;-1.13;100.00;61880.75;5110651;28;20394;-80
2023/12/20 06:40:45;;;;;;;27.30;16.77;;;;;;;-1.26;100.00;61872.97;5096960;28;20307;-80
2023/12/20 06:43:13;;;;;;;28.95;17.60;;;;;;;-1.26;100.00;61872.97;5093194;28;20408;-79
2023/12/20 06:45:43;;;;;;;18.17;12.40;;;;;;;-1.10;100.00;61884.31;5113058;28;20224;-79
2023/12/20 06:48:11;;;;;;;29.83;18.00;;;;;;;-1.05;100.00;61888.94;5109274;28;20196;-79
2023/12/20 06:50:39;;;;;;;32.17;20.15;;;;;;;-1.06;100.00;61892.91;5115452;28;20220;-79
2023/12/20 06:53:07;;;;;;;28.98;16.45;;;;;;;-1.05;100.00;61893.94;5095638;28;20207;-80
2023/12/20 06:55:35;;;;;;;19.25;12.73;;;;;;;-1.02;100.00;61895.03;5095588;28;20570;-80
2023/12/20 06:58:04;;;;;;;25.17;16.15;;;;;;;-0.93;100.00;61904.22;5102026;28;20227;-80
2023/12/20 07:00:31;;;;;;;26.50;17.02;;;;;;;-0.89;100.00;61910.81;5109136;28;20224;-79
2023/12/20 07:02:58;;;;;;;26.58;16.48;;;;;;;-0.78;100.00;61917.09;5091699;28;20197;-82
2023/12/20 07:05:25;;;;;;;23.98;15.68;;;;;;;-0.76;100.00;61921.13;5091564;28;20213;-80
2023/12/20 07:07:52;;;;;;;47.83;22.65;;;;;;;-0.73;100.00;61922.22;5109506;28;20200;-81
2023/12/20 07:10:19;;;;;;;48.35;26.00;;;;;;;-0.40;100.00;61958.00;5109702;28;20231;-80
2023/12/20 07:12:48;;;;;;;44.25;23.02;;;;;;;-0.13;100.00;61981.16;5113083;28;20203;-80
2023/12/20 07:15:17;;;;;;;41.20;21.67;;;;;;;0.26;100.00;62025.63;5109290;28;20319;-81
2023/12/20 07:17:43;;;;;;;49.88;28.85;;;;;;;0.52;100.00;62052.25;5093675;28;20236;-79
2023/12/20 07:20:11;;;;;;;37.15;20.55;;;;;;;0.49;100.00;62048.69;5089007;28;20227;-80
2023/12/20 07:22:38;;;;;;;45.35;24.90;;;;;;;0.18;100.00;62019.41;5091072;28;20203;-80
2023/12/20 07:25:06;;;;;;;35.53;21.73;;;;;;;0.35;100.00;62031.81;5104509;28;20254;-79
2023/12/20 07:27:34;;;;;;;35.75;24.08;;;;;;;0.50;100.00;62052.72;5090886;28;20197;-82
2023/12/20 07:30:01;;;;;;;50.40;27.30;;;;;;;0.46;100.00;62048.09;5091517;28;20220;-81
2023/12/20 07:32:29;;;;;;;47.97;26.90;;;;;;;0.55;100.00;62057.34;5090814;28;20193;-81
2023/12/20 07:34:56;;;;;;;46.13;28.10;;;;;;;0.42;100.00;62041.50;5089057;28;20221;-82
2023/12/20 07:37:23;;;;;;;52.17;29.45;;;;;;;0.49;100.00;62051.19;5093299;28;20193;-82
2023/12/20 07:39:50;;;;;;;46.72;28.45;;;;;;;0.45;100.00;62044.59;5090556;28;20276;-80
2023/12/20 07:42:17;;;;;;;43.67;26.00;;;;;;;0.28;100.00;62025.16;5092226;28;20206;-80
2023/12/20 07:44:44;;;;;;;45.90;25.67;;;;;;;0.17;100.00;62013.38;5091454;28;20315;-82
2023/12/20 07:47:15;;;;;;;42.65;25.40;;;;;;;0.11;100.00;62012.22;5090896;28;20207;-80
2023/12/20 07:49:43;;;;;;;39.50;26.30;;;;;;;0.30;100.00;62027.22;5091435;28;20221;-79
2023/12/20 07:52:10;;;;;;;42.00;24.90;;;;;;;0.36;100.00;62035.34;5089821;28;20207;-81
2023/12/20 07:54:37;;;;;;;45.55;27.45;;;;;;;0.48;100.00;62047.66;5101912;28;20446;-79
2023/12/20 07:57:04;;;;;;;47.05;26.88;;;;;;;0.54;100.00;62051.28;5091212;28;20210;-80
2023/12/20 07:59:32;;;;;;;46.42;27.15;;;;;;;0.52;100.00;62049.75;5098166;28;20249;-83
2023/12/20 08:01:59;;;;;;;51.08;27.70;;;;;;;0.67;100.00;62067.66;5103151;28;20222;-81
2023/12/20 08:04:25;;;;;;;42.17;25.88;;;;;;;0.81;100.00;62079.00;5089633;28;20411;-79
2023/12/20 08:06:54;;;;;;;42.03;27.10;;;;;;;0.96;100.00;62097.41;5089717;28;20204;-79
2023/12/20 08:09:21;;;;;;;47.78;28.92;;;;;;;1.19;100.00;62120.97;5105112;28;20239;-82
2023/12/20 08:11:48;;;;;;;46.88;27.67;;;;;;;1.38;100.00;62142.47;5108500;28;20204;-80
2023/12/20 08:14:16;;;;;;;41.63;25.60;;;;;;;1.60;100.00;62162.03;5107112;28;20215;-81
2023/12/20 08:16:43;;;;;;;46.05;27.38;;;;;;;1.35;100.00;62136.88;5109695;28;20541;-79
2023/12/20 08:19:09;;;;;;;49.33;27.30;;;;;;;1.21;100.00;62124.53;5104348;28;20235;-79
2023/12/20 08:21:37;;;;;;;53.15;29.75;;;;;;;1.39;100.00;62140.47;5108539;28;20547;-81
2023/12/20 08:24:05;;;;;;;49.40;30.02;;;;;;;1.68;100.00;62167.72;5108679;28;20216;-81
2023/12/20 08:26:33;;;;;;;55.20;30.20;;;;;;;1.58;100.00;62155.47;5094147;28;20196;-80
2023/12/20 08:29:00;;;;;;;57.22;32.95;;;;;;;1.63;100.00;62165.09;5106468;28;20223;-79
2023/12/20 08:31:27;;;;;;;50.72;32.05;;;;;;;1.77;100.00;62172.47;5108180;28;20309;-79
2023/12/20 08:33:54;;;;;;;53.40;33.30;;;;;;;1.65;100.00;62167.69;5108398;28;20216;-80
2023/12/20 08:36:23;;;;;;;51.90;32.13;;;;;;;1.92;100.00;62195.38;5099849;28;20200;-79
2023/12/20 08:38:50;;;;;;;57.88;32.95;;;;;;;1.80;100.00;62180.56;5109141;28;20265;-80
2023/12/20 08:41:18;;;;;;;51.55;31.58;;;;;;;1.84;100.00;62186.66;5095010;28;20200;-80
2023/12/20 08:43:45;;;;;;;51.20;31.90;;;;;;;1.78;100.00;62183.53;5092856;28;20218;-79
2023/12/20 08:46:12;;;;;;;50.70;31.45;;;;;;;1.73;100.00;62175.38;5105581;28;20199;-80
2023/12/20 08:48:39;;;;;;;45.78;30.10;;;;;;;1.46;100.00;62150.16;5105742;28;20538;-79
2023/12/20 08:51:08;;;;;;;53.45;30.75;;;;;;;1.57;100.00;62156.94;5087716;28;20541;-78
2023/12/20 08:53:35;;;;;;;48.85;31.17;;;;;;;1.57;100.00;62158.97;5087205;28;20213;-80
2023/12/20 08:56:02;;;;;;;54.25;31.15;;;;;;;1.69;100.00;62171.78;5093656;28;20208;-78
2023/12/20 08:58:30;;;;;;;50.28;28.17;;;;;;;1.77;100.00;62179.47;5086218;28;20240;-76
2023/12/20 09:00:58;;;;;;;53.75;31.55;;;;;;;1.82;100.00;62182.63;5085653;28;20418;-77
2023/12/20 09:03:25;;;;;;;51.70;32.75;;;;;;;1.38;100.00;62139.47;5094911;28;20210;-78
2023/12/20 09:05:52;;;;;;;57.25;33.13;;;;;;;1.30;100.00;62131.75;5105723;28;20216;-77
2023/12/20 09:08:22;;;;;;;56.55;33.33;;;;;;;1.26;100.00;62125.13;5106340;28;20200;-78
2023/12/20 09:10:49;;;;;;;53.03;32.70;;;;;;;1.53;100.00;62154.84;5085325;28;20225;-78
2023/12/20 09:13:16;;;;;;;52.35;31.65;;;;;;;1.84;100.00;62189.69;5096195;28;20434;-78
2023/12/20 09:15:44;;;;;;;54.30;32.58;;;;;;;1.78;100.00;62183.00;5085742;28;20372;-78
2023/12/20 09:18:11;;;;;;;47.03;30.52;;;;;;;1.99;100.00;62207.06;5092528;28;20267;-79
2023/12/20 09:20:38;;;;;;;51.95;32.88;;;;;;;2.12;100.00;62215.91;5103977;28;20231;-78
2023/12/20 09:23:05;;;;;;;54.22;31.38;;;;;;;2.18;100.00;62224.06;5094198;28;20552;-78
2023/12/20 09:25:33;;;;;;;54.13;30.52;;;;;;;1.90;100.00;62195.31;5089892;28;20247;-77
2023/12/20 09:27:59;;;;;;;52.85;32.80;;;;;;;1.96;100.00;62193.97;5091514;28;20548;-77
2023/12/20 09:30:26;;;;;;;50.95;31.17;;;;;;;2.10;100.00;62215.88;5094459;28;20228;-77
2023/12/20 09:32:55;;;;;;;48.83;30.98;;;;;;;2.06;100.00;62212.28;5096275;28;20204;-76
2023/12/20 09:35:21;;;;;;;54.40;31.83;;;;;;;2.14;100.00;62215.47;5088754;28;20529;-77
2023/12/20 09:37:48;;;;;;;53.63;31.85;;;;;;;2.17;100.00;62220.56;5084787;28;20200;-76
2023/12/20 09:40:16;;;;;;;50.13;31.08;;;;;;;2.19;100.00;62220.09;5090631;28;20413;-77
2023/12/20 09:42:46;;;;;;;50.88;31.35;;;;;;;2.22;100.00;62226.19;5085287;28;20529;-75
2023/12/20 09:45:13;;;;;;;46.40;30.10;;;;;;;2.30;100.00;62234.41;5091096;28;20277;-76
2023/12/20 09:47:40;;;;;;;61.80;33.40;;;;;;;2.51;100.00;62260.50;5085010;28;20204;-76
2023/12/20 09:50:09;;;;;;;57.17;34.03;;;;;;;2.79;100.00;62286.22;5085368;28;20238;-75
2023/12/20 09:52:37;;;;;;;57.55;34.28;;;;;;;2.91;100.00;62296.03;5084344;28;20228;-75
2023/12/20 09:55:05;;;;;;;60.15;34.97;;;;;;;3.02;100.00;62307.34;5093449;28;20235;-76
2023/12/20 09:57:32;;;;;;;57.88;35.70;;;;;;;3.35;100.00;62341.78;5085602;28;20204;-76
2023/12/20 09:59:59;;;;;;;57.13;34.03;;;;;;;3.31;100.00;62334.66;5095936;28;20295;-76
2023/12/20 10:02:27;;;;;;;63.97;35.95;;;;;;;3.33;100.00;62339.72;5091619;28;20345;-76
2023/12/20 10:04:55;;;;;;;56.70;34.20;;;;;;;3.61;100.00;62370.03;5092879;28;20224;-76
2023/12/20 10:07:23;;;;;;;51.25;31.83;;;;;;;3.37;100.00;62346.34;5085933;28;20200;-76
2023/12/20 10:09:50;;;;;;;62.05;34.30;;;;;;;3.15;100.00;62321.22;5086811;28;20219;-77
2023/12/20 10:12:17;;;;;;;62.13;35.17;;;;;;;3.43;100.00;62347.50;5103363;28;20222;-77
2023/12/20 10:14:44;;;;;;;65.00;35.72;;;;;;;3.36;100.00;62342.31;5088736;28;20224;-75
2023/12/20 10:17:11;;;;;;;56.58;34.22;;;;;;;3.29;100.00;62335.09;5084204;28;20205;-76
2023/12/20 10:19:38;;;;;;;61.95;34.08;;;;;;;2.84;100.00;62291.88;5104469;28;20235;-75
2023/12/20 10:22:05;;;;;;;66.82;40.30;;;;;;;3.03;100.00;62313.41;5085246;28;20216;-76
2023/12/20 10:24:34;;;;;;;70.43;36.90;;;;;;;3.18;100.00;62323.78;5095912;28;20258;-75
2023/12/20 10:27:05;;;;;;;60.03;35.45;;;;;;;3.21;100.00;62322.34;5086314;28;20268;-76
2023/12/20 10:29:35;;;;;;;71.60;40.10;;;;;;;3.36;100.00;62342.81;5087002;28;20224;-77
2023/12/20 10:32:22;;;;;;;74.65;37.83;;;;;;;3.59;100.00;62362.94;5085195;28;20584;-76
2023/12/20 10:34:49;;;;;;;79.00;41.95;;;;;;;3.65;100.00;62372.13;5085689;28;20228;-77
2023/12/20 10:37:16;;;;;;;72.78;41.67;;;;;;;3.63;100.00;62369.53;5097150;28;20207;-77
2023/12/20 10:39:44;;;;;;;64.63;36.72;;;;;;;3.71;100.00;62383.31;5095106;28;20512;-77
2023/12/20 10:42:12;;;;;;;65.15;37.45;;;;;;;3.76;100.00;62382.91;5103970;28;20204;-77
2023/12/20 10:44:39;;;;;;;66.13;37.20;;;;;;;3.73;100.00;62377.81;5086166;28;20581;-77
2023/12/20 10:47:06;;;;;;;66.35;38.08;;;;;;;3.92;100.00;62399.38;5083619;28;20197;-78
2023/12/20 10:49:33;;;;;;;65.95;38.55;;;;;;;4.00;100.00;62410.13;5084164;28;20217;-77
2023/12/20 10:52:00;;;;;;;66.00;36.72;;;;;;;3.70;100.00;62382.28;5084579;28;20216;-77
2023/12/20 10:54:27;;;;;;;64.60;37.97;;;;;;;3.63;100.00;62367.53;5102213;28;20231;-77
2023/12/20 10:56:55;;;;;;;68.25;40.97;;;;;;;3.77;100.00;62381.44;5099583;28;20200;-77
2023/12/20 10:59:23;;;;;;;64.05;38.65;;;;;;;3.95;100.00;62402.97;5108644;28;20234;-79
2023/12/20 11:01:50;;;;;;;68.40;38.70;;;;;;;3.90;100.00;62395.31;5110840;28;20270;-77
2023/12/20 11:04:19;;;;;;;71.47;37.28;;;;;;;3.99;100.00;62409.59;5105367;28;20220;-77
2023/12/20 11:06:48;;;;;;;59.97;38.85;;;;;;;3.91;100.00;62400.88;5097649;28;20281;-78
2023/12/20 11:09:18;;;;;;;66.00;36.63;;;;;;;3.75;100.00;62381.88;5090612;28;20229;-76
2023/12/20 11:12:03;;;;;;;71.35;37.72;;;;;;;3.72;100.00;62378.81;5089289;28;20208;-76
2023/12/20 11:14:33;;;;;;;63.63;36.33;;;;;;;3.79;100.00;62386.00;5097078;28;20227;-78
2023/12/20 11:17:09;;;;;;;72.70;38.53;;;;;;;3.84;100.00;62391.66;5097452;28;20200;-77
2023/12/20 11:19:44;;;;;;;68.97;39.50;;;;;;;3.94;100.00;62396.38;5107005;28;21328;-77